Time;durP1;ratioP1;P1;durP2;ratioP2;P2;SDS_P1;SDS_P2;PMS_P1;PMS_P2;Temp;Humidity;BMP_temperature;BMP_pressure;BME280_temperature;BME280_humidity;BME280_pressure;Samples;Min_cycle;Max_cycle;Signal;HPM_P1;HPM_P2
2023/11/30 00:02:18;;;;;;;;;;;;;;;;;;5087825;28;19920;-64
2023/11/30 00:04:44;;;;;;;;;;;;;;;;;;5087793;28;19948;-64
2023/11/30 00:07:12;;;;;;;;;;;;;;;;;;5084251;28;19962;-64
2023/11/30 00:09:38;;;;;;;;;;;;;;;;;;5081770;28;20009;-64
2023/11/30 00:12:04;;;;;;;;;;;;;;;;;;5089926;28;19961;-64
2023/11/30 00:14:30;;;;;;;;;;;;;;;;;;5091107;28;19980;-64
2023/11/30 00:16:56;;;;;;;;;;;;;;;;;;5087044;28;20412;-64
2023/11/30 00:19:21;;;;;;;;;;;;;;;;;;5090811;28;19919;-64
2023/11/30 00:21:47;;;;;;;;;;;;;;;;;;5084109;28;19916;-64
2023/11/30 00:24:13;;;;;;;;;;;;;;;;;;5088673;28;20019;-64
2023/11/30 00:26:39;;;;;;;;;;;;;;;;;;5086343;28;19934;-64
2023/11/30 00:29:05;;;;;;;;;;;;;;;;;;5080964;28;19999;-64
2023/11/30 00:31:31;;;;;;;;;;;;;;;;;;5082744;28;19971;-64
2023/11/30 00:33:57;;;;;;;;;;;;;;;;;;5084353;28;19912;-64
2023/11/30 00:36:23;;;;;;;;;;;;;;;;;;5088611;28;19918;-64
2023/11/30 00:38:49;;;;;;;;;;;;;;;;;;5089490;28;19955;-64
2023/11/30 00:41:15;;;;;;;;;;;;;;;;;;5084092;28;19912;-64
2023/11/30 00:43:40;;;;;;;;;;;;;;;;;;5077398;28;19923;-64
2023/11/30 00:46:08;;;;;;;;;;;;;;;;;;5081064;28;19912;-65
2023/11/30 00:48:34;;;;;;;;;;;;;;;;;;5079459;28;19916;-65
2023/11/30 00:51:00;;;;;;;;;;;;;;;;;;5084287;28;21280;-64
2023/11/30 00:53:26;;;;;;;;;;;;;;;;;;5080428;28;19920;-65
2023/11/30 00:55:52;;;;;;;;;;;;;;;;;;5083952;28;20007;-63
2023/11/30 00:58:18;;;;;;;;;;;;;;;;;;5090266;28;19919;-63
2023/11/30 01:00:44;;;;;;;;;;;;;;;;;;5087349;28;19922;-63
2023/11/30 01:03:10;;;;;;;;;;;;;;;;;;5079460;28;19913;-63
2023/11/30 01:05:36;;;;;;;;;;;;;;;;;;5085070;28;20013;-63
2023/11/30 01:08:02;;;;;;;;;;;;;;;;;;5081676;28;19955;-63
2023/11/30 01:10:28;;;;;;;;;;;;;;;;;;5091023;28;19916;-63
2023/11/30 01:12:53;;;;;;;;;;;;;;;;;;5084919;28;19955;-63
2023/11/30 01:15:19;;;;;;;;;;;;;;;;;;5084783;28;20022;-63
2023/11/30 01:17:45;;;;;;;;;;;;;;;;;;5094451;28;19930;-63
2023/11/30 01:20:11;;;;;;;;;;;;;;;;;;5093903;28;19947;-63
2023/11/30 01:22:37;;;;;;;;;;;;;;;;;;5091181;28;19974;-63
2023/11/30 01:25:03;;;;;;;;;;;;;;;;;;5081370;28;19940;-63
2023/11/30 01:27:29;;;;;;;;;;;;;;;;;;5083438;28;19999;-64
2023/11/30 01:29:55;;;;;;;;;;;;;;;;;;5093754;28;20299;-63
2023/11/30 01:32:21;;;;;;;;;;;;;;;;;;5077975;28;19917;-64
2023/11/30 01:34:47;;;;;;;;;;;;;;;;;;5089665;28;20024;-63
2023/11/30 01:37:13;;;;;;;;;;;;;;;;;;5080651;28;19912;-63
2023/11/30 01:39:38;;;;;;;;;;;;;;;;;;5090364;28;19944;-64
2023/11/30 01:42:04;;;;;;;;;;;;;;;;;;5086607;28;20024;-63
2023/11/30 01:44:30;;;;;;;;;;;;;;;;;;5084053;28;20342;-63
2023/11/30 01:46:56;;;;;;;;;;;;;;;;;;5084381;28;19959;-63
2023/11/30 01:49:22;;;;;;;;;;;;;;;;;;5086731;28;19923;-63
2023/11/30 01:51:48;;;;;;;;;;;;;;;;;;5082670;28;20357;-63
2023/11/30 01:54:14;;;;;;;;;;;;;;;;;;5092630;28;19912;-63
2023/11/30 01:56:40;;;;;;;;;;;;;;;;;;5078264;28;20048;-63
2023/11/30 01:59:07;;;;;;;;;;;;;;;;;;5092050;28;19916;-63
2023/11/30 02:01:33;;;;;;;;;;;;;;;;;;5088986;28;19965;-65
2023/11/30 02:03:59;;;;;;;;;;;;;;;;;;5089254;28;19912;-66
2023/11/30 02:06:25;;;;;;;;;;;;;;;;;;5084618;28;20024;-66
2023/11/30 02:08:51;;;;;;;;;;;;;;;;;;5086888;28;19917;-66
2023/11/30 02:11:17;;;;;;;;;;;;;;;;;;5090896;28;20040;-65
2023/11/30 02:13:42;;;;;;;;;;;;;;;;;;5074554;28;19966;-66
2023/11/30 02:16:08;;;;;;;;;;;;;;;;;;5079680;28;19988;-66
2023/11/30 02:18:34;;;;;;;;;;;;;;;;;;5080915;28;19912;-66
2023/11/30 02:21:00;;;;;;;;;;;;;;;;;;5087637;28;19912;-66
2023/11/30 02:23:26;;;;;;;;;;;;;;;;;;5080862;28;19971;-66
2023/11/30 02:25:52;;;;;;;;;;;;;;;;;;5077123;28;19920;-66
2023/11/30 02:28:18;;;;;;;;;;;;;;;;;;5092105;28;20310;-66
2023/11/30 02:30:46;;;;;;;;;;;;;;;;;;5087573;28;20391;-66
2023/11/30 02:33:12;;;;;;;;;;;;;;;;;;5087860;28;19913;-66
2023/11/30 02:35:38;;;;;;;;;;;;;;;;;;5083953;28;20557;-66
2023/11/30 02:38:03;;;;;;;;;;;;;;;;;;5082661;28;19923;-66
2023/11/30 02:40:29;;;;;;;;;;;;;;;;;;5080422;28;19920;-66
2023/11/30 02:42:55;;;;;;;;;;;;;;;;;;5092869;28;19973;-65
2023/11/30 02:45:21;;;;;;;;;;;;;;;;;;5091194;28;19947;-65
2023/11/30 02:47:47;;;;;;;;;;;;;;;;;;5081298;28;19912;-65
2023/11/30 02:50:13;;;;;;;;;;;;;;;;;;5081209;28;19926;-66
2023/11/30 02:52:39;;;;;;;;;;;;;;;;;;5085289;28;20004;-66
2023/11/30 02:55:05;;;;;;;;;;;;;;;;;;5079735;28;19912;-65
2023/11/30 02:57:31;;;;;;;;;;;;;;;;;;5081256;28;19912;-66
2023/11/30 02:59:56;;;;;;;;;;;;;;;;;;5078733;28;19919;-66
2023/11/30 03:02:22;;;;;;;;;;;;;;;;;;5083525;28;20399;-66
2023/11/30 03:04:48;;;;;;;;;;;;;;;;;;5086787;28;20030;-65
2023/11/30 03:07:14;;;;;;;;;;;;;;;;;;5084903;28;19912;-65
2023/11/30 03:09:40;;;;;;;;;;;;;;;;;;5087964;28;20427;-65
2023/11/30 03:12:06;;;;;;;;;;;;;;;;;;5088634;28;19916;-65
2023/11/30 03:14:32;;;;;;;;;;;;;;;;;;5079787;28;19935;-64
2023/11/30 03:16:58;;;;;;;;;;;;;;;;;;5082191;28;20001;-65
2023/11/30 03:19:24;;;;;;;;;;;;;;;;;;5078326;28;20382;-65
2023/11/30 03:21:50;;;;;;;;;;;;;;;;;;5087241;28;20124;-65
2023/11/30 03:24:16;;;;;;;;;;;;;;;;;;5073147;28;19917;-65
2023/11/30 03:26:42;;;;;;;;;;;;;;;;;;5072948;28;19928;-65
2023/11/30 03:29:07;;;;;;;;;;;;;;;;;;5090582;28;20025;-65
2023/11/30 03:31:33;;;;;;;;;;;;;;;;;;5091544;28;19951;-65
2023/11/30 03:33:59;;;;;;;;;;;;;;;;;;5076318;28;20042;-65
2023/11/30 03:36:25;;;;;;;;;;;;;;;;;;5091313;28;20342;-65
2023/11/30 03:38:53;;;;;;;;;;;;;;;;;;5087903;28;20371;-65
2023/11/30 03:41:19;;;;;;;;;;;;;;;;;;5085336;28;19917;-65
2023/11/30 03:43:45;;;;;;;;;;;;;;;;;;5081413;28;19931;-65
2023/11/30 03:46:11;;;;;;;;;;;;;;;;;;5090084;28;19991;-64
2023/11/30 03:48:37;;;;;;;;;;;;;;;;;;5083384;28;19912;-65
2023/11/30 03:51:03;;;;;;;;;;;;;;;;;;5071449;28;19931;-64
2023/11/30 03:53:29;;;;;;;;;;;;;;;;;;5075135;28;19912;-64
2023/11/30 03:55:55;;;;;;;;;;;;;;;;;;5082662;28;19939;-64
2023/11/30 03:58:20;;;;;;;;;;;;;;;;;;5076167;28;19912;-64
2023/11/30 04:00:46;;;;;;;;;;;;;;;;;;5079656;28;19948;-64
2023/11/30 04:03:12;;;;;;;;;;;;;;;;;;5088570;28;19915;-64
2023/11/30 04:05:38;;;;;;;;;;;;;;;;;;5083869;28;20018;-64
2023/11/30 04:08:04;;;;;;;;;;;;;;;;;;5077652;28;19916;-64
2023/11/30 04:10:30;;;;;;;;;;;;;;;;;;5078521;28;20429;-64
2023/11/30 04:12:56;;;;;;;;;;;;;;;;;;5088058;28;19964;-64
2023/11/30 04:15:22;;;;;;;;;;;;;;;;;;5088035;28;19918;-65
2023/11/30 04:17:48;;;;;;;;;;;;;;;;;;5076866;28;19916;-65
2023/11/30 04:20:14;;;;;;;;;;;;;;;;;;5077600;28;19920;-65
2023/11/30 04:22:40;;;;;;;;;;;;;;;;;;5078268;28;20372;-65
2023/11/30 04:25:06;;;;;;;;;;;;;;;;;;5086724;28;19916;-65
2023/11/30 04:27:32;;;;;;;;;;;;;;;;;;5076315;28;20337;-65
2023/11/30 04:29:58;;;;;;;;;;;;;;;;;;5086551;28;19956;-65
2023/11/30 04:32:24;;;;;;;;;;;;;;;;;;5088035;28;19997;-65
2023/11/30 04:34:50;;;;;;;;;;;;;;;;;;5084872;28;20368;-64
2023/11/30 04:37:16;;;;;;;;;;;;;;;;;;5083028;28;19917;-65
2023/11/30 04:39:41;;;;;;;;;;;;;;;;;;5080220;28;19912;-65
2023/11/30 04:42:07;;;;;;;;;;;;;;;;;;5085882;28;20407;-65
2023/11/30 04:44:33;;;;;;;;;;;;;;;;;;5081069;28;19908;-65
2023/11/30 04:46:59;;;;;;;;;;;;;;;;;;5081154;28;20328;-64
2023/11/30 04:49:25;;;;;;;;;;;;;;;;;;5086417;28;19956;-65
2023/11/30 04:51:51;;;;;;;;;;;;;;;;;;5079013;28;19917;-65
2023/11/30 04:54:17;;;;;;;;;;;;;;;;;;5075959;28;20084;-65
2023/11/30 04:56:43;;;;;;;;;;;;;;;;;;5086223;28;19912;-65
2023/11/30 04:59:09;;;;;;;;;;;;;;;;;;5088322;28;19919;-65
2023/11/30 05:01:35;;;;;;;;;;;;;;;;;;5093411;28;19947;-65
2023/11/30 05:04:00;;;;;;;;;;;;;;;;;;5084576;28;19912;-65
2023/11/30 05:06:27;;;;;;;;;;;;;;;;;;5087482;28;19963;-65
2023/11/30 05:08:53;;;;;;;;;;;;;;;;;;5090836;28;19912;-65
2023/11/30 05:11:19;;;;;;;;;;;;;;;;;;5077996;28;19924;-65
2023/11/30 05:13:45;;;;;;;;;;;;;;;;;;5082288;28;19920;-65
2023/11/30 05:16:12;;;;;;;;;;;;;;;;;;5094509;28;19969;-65
2023/11/30 05:18:38;;;;;;;;;;;;;;;;;;5086854;28;19999;-65
2023/11/30 05:21:04;;;;;;;;;;;;;;;;;;5083062;28;19998;-64
2023/11/30 05:23:30;;;;;;;;;;;;;;;;;;5095545;28;20002;-65
2023/11/30 05:25:57;;;;;;;;;;;;;;;;;;5086167;28;20509;-64
2023/11/30 05:28:22;;;;;;;;;;;;;;;;;;5093453;28;19912;-64
2023/11/30 05:30:49;;;;;;;;;;;;;;;;;;5090338;28;19951;-64
2023/11/30 05:33:15;;;;;;;;;;;;;;;;;;5084272;28;20273;-64
2023/11/30 05:35:40;;;;;;;;;;;;;;;;;;5079567;28;20054;-64
2023/11/30 05:38:06;;;;;;;;;;;;;;;;;;5078308;28;20435;-65
2023/11/30 05:40:32;;;;;;;;;;;;;;;;;;5091806;28;19912;-64
2023/11/30 05:42:58;;;;;;;;;;;;;;;;;;5083189;28;20338;-64
2023/11/30 05:45:24;;;;;;;;;;;;;;;;;;5079284;28;19912;-64
2023/11/30 05:47:50;;;;;;;;;;;;;;;;;;5084343;28;19944;-64
2023/11/30 05:50:16;;;;;;;;;;;;;;;;;;5086272;28;19927;-64
2023/11/30 05:52:42;;;;;;;;;;;;;;;;;;5084449;28;19919;-65
2023/11/30 05:55:08;;;;;;;;;;;;;;;;;;5093484;28;19912;-65
2023/11/30 05:57:35;;;;;;;;;;;;;;;;;;5082589;28;20362;-65
2023/11/30 06:00:03;;;;;;;;;;;;;;;;;;5094347;28;19916;-65
2023/11/30 06:02:29;;;;;;;;;;;;;;;;;;5086166;28;19981;-65
2023/11/30 06:04:55;;;;;;;;;;;;;;;;;;5082585;28;20423;-65
2023/11/30 06:07:23;;;;;;;;;;;;;;;;;;5092971;28;20260;-65
2023/11/30 06:09:49;;;;;;;;;;;;;;;;;;5080726;28;19923;-65
2023/11/30 06:12:15;;;;;;;;;;;;;;;;;;5079119;28;20348;-65
2023/11/30 06:14:41;;;;;;;;;;;;;;;;;;5081843;28;19919;-65
2023/11/30 06:17:06;;;;;;;;;;;;;;;;;;5083778;28;19916;-65
2023/11/30 06:19:32;;;;;;;;;;;;;;;;;;5088971;28;19919;-65
2023/11/30 06:21:58;;;;;;;;;;;;;;;;;;5084772;28;20400;-64
2023/11/30 06:24:26;;;;;;;;;;;;;;;;;;5084698;28;19934;-65
2023/11/30 06:26:52;;;;;;;;;;;;;;;;;;5090115;28;19927;-64
2023/11/30 06:29:18;;;;;;;;;;;;;;;;;;5092708;28;19912;-64
2023/11/30 06:31:44;;;;;;;;;;;;;;;;;;5079811;28;19963;-64
2023/11/30 06:34:09;;;;;;;;;;;;;;;;;;5088946;28;19919;-63
2023/11/30 06:36:35;;;;;;;;;;;;;;;;;;5094169;28;20375;-63
2023/11/30 06:39:03;;;;;;;;;;;;;;;;;;5088270;28;19914;-63
2023/11/30 06:41:28;;;;;;;;;;;;;;;;;;5084431;28;20406;-63
2023/11/30 06:43:54;;;;;;;;;;;;;;;;;;5078633;28;19938;-63
2023/11/30 06:46:20;;;;;;;;;;;;;;;;;;5074301;28;19966;-62
2023/11/30 06:48:49;;;;;;;;;;;;;;;;;;5082542;28;19916;-63
2023/11/30 06:51:15;;;;;;;;;;;;;;;;;;5076981;28;19923;-63
2023/11/30 06:53:41;;;;;;;;;;;;;;;;;;5075013;28;19916;-63
2023/11/30 06:56:07;;;;;;;;;;;;;;;;;;5080723;28;20424;-63
2023/11/30 06:58:33;;;;;;;;;;;;;;;;;;5083354;28;19912;-63
2023/11/30 07:00:59;;;;;;;;;;;;;;;;;;5089435;28;20327;-62
2023/11/30 07:03:28;;;;;;;;;;;;;;;;;;5079793;28;20005;-62
2023/11/30 07:05:54;;;;;;;;;;;;;;;;;;5084090;28;19963;-62
2023/11/30 07:08:20;;;;;;;;;;;;;;;;;;5078233;28;19994;-63
2023/11/30 07:10:46;;;;;;;;;;;;;;;;;;5091126;28;20024;-63
2023/11/30 07:13:11;;;;;;;;;;;;;;;;;;5088129;28;20448;-64
2023/11/30 07:15:37;;;;;;;;;;;;;;;;;;5089360;28;19920;-62
2023/11/30 07:18:03;;;;;;;;;;;;;;;;;;5091930;28;19997;-63
2023/11/30 07:20:29;;;;;;;;;;;;;;;;;;5093386;28;19987;-63
2023/11/30 07:22:55;;;;;;;;;;;;;;;;;;5091241;28;19944;-63
2023/11/30 07:25:22;;;;;;;;;;;;;;;;;;5092830;28;19942;-63
2023/11/30 07:27:48;;;;;;;;;;;;;;;;;;5093180;28;19923;-62
2023/11/30 07:30:14;;;;;;;;;;;;;;;;;;5093102;28;20271;-62
2023/11/30 07:32:40;;;;;;;;;;;;;;;;;;5093028;28;19908;-62
2023/11/30 07:35:06;;;;;;;;;;;;;;;;;;5085516;28;19912;-62
2023/11/30 07:37:32;;;;;;;;;;;;;;;;;;5092972;28;19916;-63
2023/11/30 07:39:58;;;;;;;;;;;;;;;;;;5092844;28;19912;-62
2023/11/30 07:42:24;;;;;;;;;;;;;;;;;;5078173;28;19958;-62
2023/11/30 07:44:51;;;;;;;;;;;;;;;;;;5093015;28;20372;-64
2023/11/30 07:47:18;;;;;;;;;;;;;;;;;;5071583;28;19912;-64
2023/11/30 07:49:44;;;;;;;;;;;;;;;;;;5072909;28;19908;-64
2023/11/30 07:52:10;;;;;;;;;;;;;;;;;;5078305;28;20389;-64
2023/11/30 07:54:36;;;;;;;;;;;;;;;;;;5092873;28;19912;-63
2023/11/30 07:57:02;;;;;;;;;;;;;;;;;;5091141;28;19966;-64
2023/11/30 07:59:28;;;;;;;;;;;;;;;;;;5092745;28;19908;-64
2023/11/30 08:01:54;;;;;;;;;;;;;;;;;;5092621;28;19939;-63
2023/11/30 08:04:20;;;;;;;;;;;;;;;;;;5079752;28;19962;-64
2023/11/30 08:06:46;;;;;;;;;;;;;;;;;;5083493;28;19962;-63
2023/11/30 08:09:13;;;;;;;;;;;;;;;;;;5088315;28;19924;-63
2023/11/30 08:11:39;;;;;;;;;;;;;;;;;;5082307;28;19919;-63
2023/11/30 08:14:05;;;;;;;;;;;;;;;;;;5092638;28;19908;-63
2023/11/30 08:16:31;;;;;;;;;;;;;;;;;;5083534;28;20291;-63
2023/11/30 08:18:58;;;;;;;;;;;;;;;;;;5088041;28;20327;-63
2023/11/30 08:21:23;;;;;;;;;;;;;;;;;;5090715;28;20017;-63
2023/11/30 08:23:49;;;;;;;;;;;;;;;;;;5092416;28;19951;-63
2023/11/30 08:26:15;;;;;;;;;;;;;;;;;;5081934;28;20345;-63
2023/11/30 08:28:41;;;;;;;;;;;;;;;;;;5092292;28;20404;-63
2023/11/30 08:31:08;;;;;;;;;;;;;;;;;;5087674;28;19947;-63
2023/11/30 08:33:34;;;;;;;;;;;;;;;;;;5095324;28;20000;-63
2023/11/30 08:36:00;;;;;;;;;;;;;;;;;;5087823;28;19962;-63
2023/11/30 08:38:26;;;;;;;;;;;;;;;;;;5078600;28;19912;-64
2023/11/30 08:40:52;;;;;;;;;;;;;;;;;;5086884;28;19995;-64
2023/11/30 08:43:18;;;;;;;;;;;;;;;;;;5091844;28;19998;-63
2023/11/30 08:45:44;;;;;;;;;;;;;;;;;;5092117;28;23428;-64
2023/11/30 08:48:10;;;;;;;;;;;;;;;;;;5078690;28;19912;-63
2023/11/30 08:50:36;;;;;;;;;;;;;;;;;;5095996;28;20102;-64
2023/11/30 08:53:03;;;;;;;;;;;;;;;;;;5096090;28;19914;-63
2023/11/30 08:55:29;;;;;;;;;;;;;;;;;;5090125;28;19916;-63
2023/11/30 08:57:55;;;;;;;;;;;;;;;;;;5079538;28;19991;-62
2023/11/30 09:00:21;;;;;;;;;;;;;;;;;;5084064;28;19909;-62
2023/11/30 09:02:48;;;;;;;;;;;;;;;;;;5094856;28;20012;-62
2023/11/30 09:05:13;;;;;;;;;;;;;;;;;;5094716;28;19968;-62
2023/11/30 09:07:39;;;;;;;;;;;;;;;;;;5094832;28;20280;-62
2023/11/30 09:10:05;;;;;;;;;;;;;;;;;;5095099;28;19962;-62
2023/11/30 09:12:31;;;;;;;;;;;;;;;;;;5094579;28;19908;-62
2023/11/30 09:14:59;;;;;;;;;;;;;;;;;;5095034;28;19985;-62
2023/11/30 09:17:25;;;;;;;;;;;;;;;;;;5088623;28;19912;-62
2023/11/30 09:19:51;;;;;;;;;;;;;;;;;;5085375;28;20369;-63
2023/11/30 09:22:17;;;;;;;;;;;;;;;;;;5093447;28;19916;-62
2023/11/30 09:24:43;;;;;;;;;;;;;;;;;;5084892;28;19912;-62
2023/11/30 09:27:09;;;;;;;;;;;;;;;;;;5077907;28;19966;-62
2023/11/30 09:29:35;;;;;;;;;;;;;;;;;;5085425;28;19956;-62
2023/11/30 09:32:01;;;;;;;;;;;;;;;;;;5076249;28;19955;-62
2023/11/30 09:34:27;;;;;;;;;;;;;;;;;;5092928;28;20384;-62
2023/11/30 09:36:53;;;;;;;;;;;;;;;;;;5087753;28;19931;-62
2023/11/30 09:39:19;;;;;;;;;;;;;;;;;;5094553;28;19908;-62
2023/11/30 09:41:45;;;;;;;;;;;;;;;;;;5076819;28;19970;-62
2023/11/30 09:44:11;;;;;;;;;;;;;;;;;;5078788;28;19920;-62
2023/11/30 09:46:38;;;;;;;;;;;;;;;;;;5089748;28;20397;-62
2023/11/30 09:49:06;;;;;;;;;;;;;;;;;;5094470;28;19961;-62
2023/11/30 09:51:32;;;;;;;;;;;;;;;;;;5094164;28;20443;-62
2023/11/30 09:53:58;;;;;;;;;;;;;;;;;;5094321;28;19962;-62
2023/11/30 09:56:26;;;;;;;;;;;;;;;;;;5094194;28;20390;-62
2023/11/30 09:58:52;;;;;;;;;;;;;;;;;;5092405;28;20349;-62
2023/11/30 10:01:18;;;;;;;;;;;;;;;;;;5094087;28;19955;-62
2023/11/30 10:03:43;;;;;;;;;;;;;;;;;;5093993;28;20049;-63
2023/11/30 10:06:09;;;;;;;;;;;;;;;;;;5094425;28;19995;-65
2023/11/30 10:08:35;;;;;;;;;;;;;;;;;;5079708;28;19915;-65
2023/11/30 10:11:03;;;;;;;;;;;;;;;;;;5075307;28;20010;-65
2023/11/30 10:13:29;;;;;;;;;;;;;;;;;;5093069;28;19962;-64
2023/11/30 10:15:55;;;;;;;;;;;;;;;;;;5080246;28;19908;-65
2023/11/30 10:18:21;;;;;;;;;;;;;;;;;;5092409;28;20395;-65
2023/11/30 10:20:47;;;;;;;;;;;;;;;;;;5088967;28;19962;-64
2023/11/30 10:23:13;;;;;;;;;;;;;;;;;;5089644;28;19912;-64
2023/11/30 10:25:39;;;;;;;;;;;;;;;;;;5093524;28;19916;-64
2023/11/30 10:28:06;;;;;;;;;;;;;;;;;;5093747;28;19943;-64
2023/11/30 10:30:32;;;;;;;;;;;;;;;;;;5090093;28;20118;-65
2023/11/30 10:32:58;;;;;;;;;;;;;;;;;;5082808;28;19919;-64
2023/11/30 10:35:24;;;;;;;;;;;;;;;;;;5078321;28;19909;-65
2023/11/30 10:37:53;;;;;;;;;;;;;;;;;;5073648;28;20046;-65
2023/11/30 10:40:19;;;;;;;;;;;;;;;;;;5086829;28;19908;-65
2023/11/30 10:42:45;;;;;;;;;;;;;;;;;;5073150;28;19909;-65
2023/11/30 10:45:11;;;;;;;;;;;;;;;;;;5090493;28;19950;-65
2023/11/30 10:47:37;;;;;;;;;;;;;;;;;;5093321;28;19982;-65
2023/11/30 10:50:05;;;;;;;;;;;;;;;;;;5092549;28;20017;-65
2023/11/30 10:52:31;;;;;;;;;;;;;;;;;;5093262;28;19995;-65
2023/11/30 10:54:57;;;;;;;;;;;;;;;;;;5091437;28;20079;-65
2023/11/30 10:57:23;;;;;;;;;;;;;;;;;;5080630;28;19909;-65
2023/11/30 10:59:49;;;;;;;;;;;;;;;;;;5076836;28;19908;-65
2023/11/30 11:02:15;;;;;;;;;;;;;;;;;;5093009;28;20387;-65
2023/11/30 11:04:41;;;;;;;;;;;;;;;;;;5092771;28;19947;-65
2023/11/30 11:07:07;;;;;;;;;;;;;;;;;;5092967;28;19919;-65
2023/11/30 11:09:33;;;;;;;;;;;;;;;;;;5091430;28;19920;-65
2023/11/30 11:11:59;;;;;;;;;;;;;;;;;;5092588;28;19967;-65
2023/11/30 11:14:25;;;;;;;;;;;;;;;;;;5092695;28;19912;-64
2023/11/30 11:16:53;;;;;;;;;;;;;;;;;;5092906;28;20405;-64
2023/11/30 11:19:20;;;;;;;;;;;;;;;;;;5092986;28;19962;-64
2023/11/30 11:21:48;;;;;;;;;;;;;;;;;;5092724;28;19952;-63
2023/11/30 11:24:13;;;;;;;;;;;;;;;;;;5087267;28;20288;-64
2023/11/30 11:26:39;;;;;;;;;;;;;;;;;;5092237;28;19920;-63
2023/11/30 11:29:05;;;;;;;;;;;;;;;;;;5092967;28;19967;-62
2023/11/30 11:31:31;;;;;;;;;;;;;;;;;;5079742;28;19924;-62
2023/11/30 11:34:03;;;;;;;;;;;;;;;;;;5091556;28;20003;-62
2023/11/30 11:36:29;;;;;;;;;;;;;;;;;;5092564;28;20390;-64
2023/11/30 11:38:54;;;;;;;;;;;;;;;;;;5090069;28;19913;-62
2023/11/30 11:41:20;;;;;;;;;;;;;;;;;;5092589;28;19915;-61
2023/11/30 11:43:46;;;;;;;;;;;;;;;;;;5092318;28;19951;-61
2023/11/30 11:46:12;;;;;;;;;;;;;;;;;;5078873;28;19915;-61
2023/11/30 11:48:38;;;;;;;;;;;;;;;;;;5084446;28;19908;-61
2023/11/30 11:51:04;;;;;;;;;;;;;;;;;;5085765;28;20384;-62
2023/11/30 11:53:30;;;;;;;;;;;;;;;;;;5089052;28;19958;-61
2023/11/30 11:55:56;;;;;;;;;;;;;;;;;;5092241;28;19953;-61
2023/11/30 11:58:22;;;;;;;;;;;;;;;;;;5092201;28;20349;-61
2023/11/30 12:00:48;;;;;;;;;;;;;;;;;;5090297;28;19908;-61
2023/11/30 12:03:14;;;;;;;;;;;;;;;;;;5091961;28;19995;-60
2023/11/30 12:05:40;;;;;;;;;;;;;;;;;;5091907;28;19912;-61
2023/11/30 12:08:06;;;;;;;;;;;;;;;;;;5091867;28;19908;-61
2023/11/30 12:10:32;;;;;;;;;;;;;;;;;;5090720;28;20345;-64
2023/11/30 12:12:58;;;;;;;;;;;;;;;;;;5091417;28;19923;-62
2023/11/30 12:15:24;;;;;;;;;;;;;;;;;;5092444;28;19919;-63
2023/11/30 12:17:50;;;;;;;;;;;;;;;;;;5092285;28;20536;-58
2023/11/30 12:20:19;;;;;;;;;;;;;;;;;;5091685;28;19908;-61
2023/11/30 12:22:45;;;;;;;;;;;;;;;;;;5091809;28;19951;-62
2023/11/30 12:25:11;;;;;;;;;;;;;;;;;;5091873;28;19951;-66
2023/11/30 12:27:37;;;;;;;;;;;;;;;;;;5091573;28;20498;-67
2023/11/30 12:30:02;;;;;;;;;;;;;;;;;;5089678;28;20021;-65
2023/11/30 12:32:28;;;;;;;;;;;;;;;;;;5086704;28;19908;-65
2023/11/30 12:34:57;;;;;;;;;;;;;;;;;;5086400;28;19917;-64
2023/11/30 12:37:22;;;;;;;;;;;;;;;;;;5081278;28;19908;-65
2023/11/30 12:39:48;;;;;;;;;;;;;;;;;;5086144;28;19958;-65
2023/11/30 12:42:15;;;;;;;;;;;;;;;;;;5091737;28;20379;-65
2023/11/30 12:44:41;;;;;;;;;;;;;;;;;;5091596;28;19912;-65
2023/11/30 12:47:10;;;;;;;;;;;;;;;;;;5091589;28;20383;-65
2023/11/30 12:49:36;;;;;;;;;;;;;;;;;;5074323;28;19920;-66
2023/11/30 12:52:02;;;;;;;;;;;;;;;;;;5081712;28;19937;-65
2023/11/30 12:54:28;;;;;;;;;;;;;;;;;;5090321;28;19916;-65
2023/11/30 12:56:54;;;;;;;;;;;;;;;;;;5070825;28;19935;-65
2023/11/30 12:59:20;;;;;;;;;;;;;;;;;;5088134;28;19917;-65
2023/11/30 13:01:45;;;;;;;;;;;;;;;;;;5091497;28;19920;-66
2023/11/30 13:04:11;;;;;;;;;;;;;;;;;;5091158;28;19970;-65
2023/11/30 13:06:39;;;;;;;;;;;;;;;;;;5091364;28;20045;-65
2023/11/30 13:09:07;;;;;;;;;;;;;;;;;;5091179;28;19955;-66
2023/11/30 13:11:33;;;;;;;;;;;;;;;;;;5090314;28;19923;-65
2023/11/30 13:14:01;;;;;;;;;;;;;;;;;;5081113;28;19940;-65
2023/11/30 13:16:27;;;;;;;;;;;;;;;;;;5082271;28;19916;-66
2023/11/30 13:18:53;;;;;;;;;;;;;;;;;;5081400;28;19989;-65
2023/11/30 13:21:19;;;;;;;;;;;;;;;;;;5080584;28;20396;-65
2023/11/30 13:23:44;;;;;;;;;;;;;;;;;;5094728;28;20053;-65
2023/11/30 13:26:12;;;;;;;;;;;;;;;;;;5081122;28;19920;-65
2023/11/30 13:28:38;;;;;;;;;;;;;;;;;;5091307;28;19914;-65
2023/11/30 13:31:04;;;;;;;;;;;;;;;;;;5094769;28;19999;-65
2023/11/30 13:33:30;;;;;;;;;;;;;;;;;;5094543;28;19937;-65
2023/11/30 13:35:56;;;;;;;;;;;;;;;;;;5084499;28;20051;-63
2023/11/30 13:38:21;;;;;;;;;;;;;;;;;;5083993;28;19939;-63
2023/11/30 13:40:47;;;;;;;;;;;;;;;;;;5085026;28;19967;-63
2023/11/30 13:43:13;;;;;;;;;;;;;;;;;;5077808;28;19968;-63
2023/11/30 13:45:39;;;;;;;;;;;;;;;;;;5092171;28;19969;-63
2023/11/30 13:48:06;;;;;;;;;;;;;;;;;;5087685;28;19974;-63
2023/11/30 13:50:31;;;;;;;;;;;;;;;;;;5083224;28;19916;-63
2023/11/30 13:52:58;;;;;;;;;;;;;;;;;;5093262;28;19930;-63
2023/11/30 13:55:24;;;;;;;;;;;;;;;;;;5094374;28;20344;-63
2023/11/30 13:57:50;;;;;;;;;;;;;;;;;;5094123;28;19947;-63
2023/11/30 14:00:16;;;;;;;;;;;;;;;;;;5093056;28;19916;-63
2023/11/30 14:02:42;;;;;;;;;;;;;;;;;;5084079;28;19996;-63
2023/11/30 14:05:08;;;;;;;;;;;;;;;;;;5076957;28;20357;-63
2023/11/30 14:07:34;;;;;;;;;;;;;;;;;;5080594;28;19917;-63
2023/11/30 14:10:00;;;;;;;;;;;;;;;;;;5090208;28;20264;-63
2023/11/30 14:12:29;;;;;;;;;;;;;;;;;;5089587;28;20360;-63
2023/11/30 14:14:55;;;;;;;;;;;;;;;;;;5073483;28;20003;-63
2023/11/30 14:17:21;;;;;;;;;;;;;;;;;;5085802;28;19926;-63
2023/11/30 14:19:47;;;;;;;;;;;;;;;;;;5073572;28;20328;-63
2023/11/30 14:22:14;;;;;;;;;;;;;;;;;;5090715;28;19996;-63
2023/11/30 14:24:39;;;;;;;;;;;;;;;;;;5090158;28;19912;-63
2023/11/30 14:27:05;;;;;;;;;;;;;;;;;;5093344;28;19973;-63
2023/11/30 14:29:31;;;;;;;;;;;;;;;;;;5093673;28;20000;-63
2023/11/30 14:31:57;;;;;;;;;;;;;;;;;;5075368;28;20034;-63
2023/11/30 14:34:23;;;;;;;;;;;;;;;;;;5075414;28;20049;-63
2023/11/30 14:36:52;;;;;;;;;;;;;;;;;;5088601;28;20356;-63
2023/11/30 14:39:18;;;;;;;;;;;;;;;;;;5076171;28;20264;-63
2023/11/30 14:41:44;;;;;;;;;;;;;;;;;;5077143;28;20258;-64
2023/11/30 14:44:10;;;;;;;;;;;;;;;;;;5082497;28;19915;-63
2023/11/30 14:46:37;;;;;;;;;;;;;;;;;;5093969;28;20058;-63
2023/11/30 14:49:02;;;;;;;;;;;;;;;;;;5077855;28;19912;-63
2023/11/30 14:51:28;;;;;;;;;;;;;;;;;;5090858;28;19951;-64
2023/11/30 14:53:54;;;;;;;;;;;;;;;;;;5094031;28;20336;-63
2023/11/30 14:56:25;;;;;;;;;;;;;;;;;;5093506;28;19943;-63
2023/11/30 14:58:50;;;;;;;;;;;;;;;;;;5083786;28;19947;-63
2023/11/30 15:01:17;;;;;;;;;;;;;;;;;;5089051;28;19939;-63
2023/11/30 15:03:43;;;;;;;;;;;;;;;;;;5087937;28;19912;-63
2023/11/30 15:06:09;;;;;;;;;;;;;;;;;;5084360;28;19919;-63
2023/11/30 15:08:35;;;;;;;;;;;;;;;;;;5076232;28;19913;-63
2023/11/30 15:11:01;;;;;;;;;;;;;;;;;;5089381;28;20579;-63
2023/11/30 15:13:27;;;;;;;;;;;;;;;;;;5092557;28;20003;-63
2023/11/30 15:15:53;;;;;;;;;;;;;;;;;;5087089;28;19918;-63
2023/11/30 15:18:20;;;;;;;;;;;;;;;;;;5083356;28;19912;-63
2023/11/30 15:20:46;;;;;;;;;;;;;;;;;;5079728;28;19913;-63
2023/11/30 15:23:12;;;;;;;;;;;;;;;;;;5090010;28;19912;-63
2023/11/30 15:25:39;;;;;;;;;;;;;;;;;;5085985;28;20066;-63
2023/11/30 15:28:09;;;;;;;;;;;;;;;;;;5086382;28;19939;-63
2023/11/30 15:30:35;;;;;;;;;;;;;;;;;;5080715;28;19916;-63
2023/11/30 15:33:01;;;;;;;;;;;;;;;;;;5088220;28;20268;-63
2023/11/30 15:35:28;;;;;;;;;;;;;;;;;;5074560;28;19917;-63
2023/11/30 15:37:57;;;;;;;;;;;;;;;;;;5076243;28;20273;-62
2023/11/30 15:40:24;;;;;;;;;;;;;;;;;;5090854;28;19920;-63
2023/11/30 15:42:51;;;;;;;;;;;;;;;;;;5075571;28;20003;-63
2023/11/30 15:45:17;;;;;;;;;;;;;;;;;;5081049;28;19924;-63
2023/11/30 15:47:43;;;;;;;;;;;;;;;;;;5080013;28;19932;-63
2023/11/30 15:50:10;;;;;;;;;;;;;;;;;;5085789;28;19931;-63
2023/11/30 15:52:36;;;;;;;;;;;;;;;;;;5088424;28;20303;-63
2023/11/30 15:55:03;;;;;;;;;;;;;;;;;;5086767;28;19963;-64
2023/11/30 15:57:28;;;;;;;;;;;;;;;;;;5082631;28;20376;-64
2023/11/30 15:59:54;;;;;;;;;;;;;;;;;;5077795;28;19909;-64
2023/11/30 16:02:20;;;;;;;;;;;;;;;;;;5085354;28;19999;-64
2023/11/30 16:04:46;;;;;;;;;;;;;;;;;;5082785;28;19918;-64
2023/11/30 16:07:12;;;;;;;;;;;;;;;;;;5083025;28;19918;-65
2023/11/30 16:09:38;;;;;;;;;;;;;;;;;;5084012;28;20272;-64
2023/11/30 16:12:04;;;;;;;;;;;;;;;;;;5081739;28;19952;-64
2023/11/30 16:14:30;;;;;;;;;;;;;;;;;;5086366;28;20022;-64
2023/11/30 16:16:56;;;;;;;;;;;;;;;;;;5086061;28;19957;-64
2023/11/30 16:19:21;;;;;;;;;;;;;;;;;;5091165;28;19912;-64
2023/11/30 16:21:47;;;;;;;;;;;;;;;;;;5078024;28;20018;-64
2023/11/30 16:24:13;;;;;;;;;;;;;;;;;;5091725;28;20338;-64
2023/11/30 16:26:39;;;;;;;;;;;;;;;;;;5091007;28;20017;-64
2023/11/30 16:29:05;;;;;;;;;;;;;;;;;;5083780;28;19964;-64
2023/11/30 16:31:31;;;;;;;;;;;;;;;;;;5085406;28;20275;-64
2023/11/30 16:33:57;;;;;;;;;;;;;;;;;;5086475;28;19926;-64
2023/11/30 16:36:23;;;;;;;;;;;;;;;;;;5077557;28;19963;-64
2023/11/30 16:38:49;;;;;;;;;;;;;;;;;;5082495;28;19912;-63